Time;durP1;ratioP1;P1;durP2;ratioP2;P2;SDS_P1;SDS_P2;PMS_P1;PMS_P2;Temp;Humidity;BMP_temperature;BMP_pressure;BME280_temperature;BME280_humidity;BME280_pressure;Samples;Min_cycle;Max_cycle;Signal;HPM_P1;HPM_P2
2022/11/21 00:01:20;;;;;;;18.15;11.00;;;0.90;99.90;;;;;;4993712;28;20061;-70
2022/11/21 00:03:46;;;;;;;18.67;11.47;;;1.00;99.90;;;;;;4991238;28;20041;-70
2022/11/21 00:06:12;;;;;;;18.80;10.98;;;1.00;99.90;;;;;;5010959;28;20056;-69
2022/11/21 00:08:38;;;;;;;19.70;11.40;;;0.90;99.90;;;;;;4993468;28;20049;-70
2022/11/21 00:11:04;;;;;;;21.30;11.90;;;0.90;99.90;;;;;;5009936;28;20050;-70
2022/11/21 00:13:29;;;;;;;20.58;12.02;;;0.90;99.90;;;;;;5010792;28;20267;-70
2022/11/21 00:16:01;;;;;;;19.38;11.00;;;0.90;99.90;;;;;;5009525;28;20494;-70
2022/11/21 00:18:27;;;;;;;17.25;11.13;;;0.90;99.90;;;;;;5039501;28;20165;-69
2022/11/21 00:20:53;;;;;;;18.98;11.18;;;0.90;99.90;;;;;;5006009;28;20104;-69
2022/11/21 00:23:18;;;;;;;19.80;12.02;;;0.90;99.90;;;;;;4995319;28;20053;-69
2022/11/21 00:25:44;;;;;;;19.77;11.77;;;0.90;99.90;;;;;;5009350;28;20073;-69
2022/11/21 00:28:10;;;;;;;19.33;11.75;;;0.90;99.90;;;;;;5007038;28;20053;-70
2022/11/21 00:30:35;;;;;;;18.63;11.75;;;0.90;99.90;;;;;;5009778;28;20495;-70
2022/11/21 00:33:03;;;;;;;18.80;11.68;;;0.90;99.90;;;;;;5010654;28;20139;-69
2022/11/21 00:35:31;;;;;;;18.42;11.45;;;0.90;99.90;;;;;;5008484;28;20479;-70
2022/11/21 00:37:57;;;;;;;19.63;12.32;;;0.90;99.90;;;;;;5012763;28;20165;-70
2022/11/21 00:40:23;;;;;;;22.02;11.52;;;0.90;99.90;;;;;;5010764;28;20545;-70
2022/11/21 00:42:48;;;;;;;21.13;12.68;;;0.80;99.90;;;;;;4993450;28;20496;-70
2022/11/21 00:45:14;;;;;;;21.65;12.55;;;0.90;99.90;;;;;;5009738;28;20472;-64
2022/11/21 00:47:40;;;;;;;20.52;12.75;;;0.90;99.90;;;;;;4991451;28;20380;-65
2022/11/21 00:50:06;;;;;;;21.80;12.77;;;0.90;99.90;;;;;;5022327;28;20042;-65
2022/11/21 00:52:32;;;;;;;18.83;11.98;;;0.90;99.90;;;;;;4997970;28;20049;-64
2022/11/21 00:54:59;;;;;;;19.23;12.02;;;0.90;99.90;;;;;;5007259;28;20565;-64
2022/11/21 00:57:24;;;;;;;20.13;11.80;;;0.90;99.90;;;;;;5009267;28;20196;-64
2022/11/21 00:59:50;;;;;;;18.70;11.43;;;0.80;99.90;;;;;;5009450;28;20140;-64
2022/11/21 01:02:17;;;;;;;19.83;11.77;;;0.80;99.90;;;;;;5006164;28;20772;-64
2022/11/21 01:04:43;;;;;;;22.60;12.38;;;0.80;99.90;;;;;;5004891;28;20042;-64
2022/11/21 01:07:09;;;;;;;19.80;11.90;;;0.80;99.90;;;;;;5008755;28;20108;-65
2022/11/21 01:09:34;;;;;;;20.65;12.10;;;0.80;99.90;;;;;;4992933;28;20074;-64
2022/11/21 01:12:00;;;;;;;24.17;13.38;;;0.90;99.90;;;;;;5008851;28;20053;-64
2022/11/21 01:14:26;;;;;;;20.77;13.38;;;0.80;99.90;;;;;;4992194;28;20467;-65
2022/11/21 01:16:52;;;;;;;20.13;12.07;;;0.80;99.90;;;;;;5005632;28;20077;-64
2022/11/21 01:19:17;;;;;;;20.58;13.68;;;0.80;99.90;;;;;;5022973;28;20119;-64
2022/11/21 01:21:43;;;;;;;19.23;11.43;;;0.80;99.90;;;;;;5008709;28;20108;-64
2022/11/21 01:24:10;;;;;;;20.80;12.40;;;0.80;99.90;;;;;;4992222;28;20132;-64
2022/11/21 01:26:36;;;;;;;21.52;12.13;;;0.80;99.90;;;;;;5008462;28;20553;-64
2022/11/21 01:29:04;;;;;;;19.63;12.32;;;0.80;99.90;;;;;;5008890;28;20081;-65
2022/11/21 01:31:29;;;;;;;20.55;12.35;;;0.80;99.90;;;;;;5006072;28;20494;-64
2022/11/21 01:33:56;;;;;;;20.90;12.48;;;0.80;99.90;;;;;;5008149;28;20045;-64
2022/11/21 01:36:24;;;;;;;20.00;13.00;;;0.80;99.90;;;;;;5007207;28;20045;-64
2022/11/21 01:38:51;;;;;;;20.00;12.05;;;0.80;99.90;;;;;;5008689;28;20049;-65
2022/11/21 01:41:21;;;;;;;21.20;12.70;;;0.90;99.90;;;;;;5008771;28;20046;-64
2022/11/21 01:43:47;;;;;;;24.23;13.73;;;0.80;99.90;;;;;;4992646;28;20080;-65
2022/11/21 01:46:14;;;;;;;21.50;12.57;;;0.80;99.90;;;;;;5008073;28;20870;-64
2022/11/21 01:48:56;;;;;;;19.63;13.23;;;0.90;99.90;;;;;;5007336;28;20073;-64
2022/11/21 01:51:27;;;;;;;20.00;12.75;;;0.80;99.90;;;;;;5009233;28;20042;-64
2022/11/21 01:54:01;;;;;;;22.60;13.75;;;0.80;99.90;;;;;;5008291;28;20111;-65
2022/11/21 01:56:28;;;;;;;22.23;13.60;;;0.80;99.90;;;;;;5008816;28;20133;-64
2022/11/21 01:58:55;;;;;;;22.25;13.00;;;0.80;99.90;;;;;;5003412;28;20053;-64
2022/11/21 02:01:21;;;;;;;21.02;13.15;;;0.80;99.90;;;;;;5008321;28;20046;-64
2022/11/21 02:03:47;;;;;;;21.38;12.50;;;0.80;99.90;;;;;;4990582;28;20046;-64
2022/11/21 02:06:12;;;;;;;22.00;12.98;;;0.80;99.90;;;;;;4988445;28;20105;-64
2022/11/21 02:08:38;;;;;;;21.67;13.23;;;0.80;99.90;;;;;;4990374;28;20056;-64
2022/11/21 02:11:28;;;;;;;22.70;13.63;;;0.80;99.90;;;;;;5003348;28;20103;-65
2022/11/21 02:13:54;;;;;;;19.80;12.38;;;0.80;99.90;;;;;;5007495;28;20037;-64
2022/11/21 02:16:20;;;;;;;20.20;12.80;;;0.80;99.90;;;;;;4991738;28;20104;-64
2022/11/21 02:18:46;;;;;;;22.52;13.48;;;0.80;99.90;;;;;;4991282;28;20494;-64
2022/11/21 02:21:24;;;;;;;22.40;12.10;;;0.80;99.90;;;;;;5007789;28;20124;-65
2022/11/21 02:23:57;;;;;;;19.98;12.65;;;0.80;99.90;;;;;;5007865;28;20061;-64
2022/11/21 02:26:22;;;;;;;20.33;12.73;;;0.80;99.90;;;;;;5009023;28;20061;-64
2022/11/21 02:28:48;;;;;;;20.98;12.98;;;0.80;99.90;;;;;;5022743;28;20047;-64
2022/11/21 02:31:14;;;;;;;21.25;12.32;;;0.80;99.90;;;;;;5003858;28;20066;-64
2022/11/21 02:33:39;;;;;;;22.60;13.70;;;0.80;99.90;;;;;;5013899;28;20042;-64
2022/11/21 02:36:34;;;;;;;21.90;13.45;;;0.80;99.90;;;;;;4988572;28;20053;-64
2022/11/21 02:39:01;;;;;;;23.67;13.07;;;0.80;99.90;;;;;;5009760;28;20372;-64
2022/11/21 02:41:27;;;;;;;21.08;12.98;;;0.70;99.90;;;;;;4991607;28;20474;-64
2022/11/21 02:44:02;;;;;;;25.55;13.63;;;0.80;99.90;;;;;;5026810;28;20050;-64
2022/11/21 02:46:28;;;;;;;22.75;13.23;;;0.80;99.90;;;;;;5012082;28;20053;-65
2022/11/21 02:48:54;;;;;;;18.63;12.30;;;0.80;99.90;;;;;;5007224;28;20117;-64
2022/11/21 02:51:20;;;;;;;22.98;13.63;;;0.80;99.90;;;;;;5011772;28;20050;-64
2022/11/21 02:53:45;;;;;;;24.15;12.85;;;0.80;99.90;;;;;;5025953;28;20770;-64
2022/11/21 02:56:11;;;;;;;20.67;13.10;;;0.80;99.90;;;;;;4991229;28;20042;-63
2022/11/21 02:58:37;;;;;;;21.25;12.52;;;0.80;99.90;;;;;;5009614;28;20048;-64
2022/11/21 03:01:03;;;;;;;21.77;13.07;;;0.80;99.90;;;;;;5005952;28;20057;-63
2022/11/21 03:03:28;;;;;;;19.88;12.00;;;0.80;99.90;;;;;;5007654;28;20053;-63
2022/11/21 03:05:55;;;;;;;23.63;13.45;;;0.70;99.90;;;;;;5018656;28;20064;-64
2022/11/21 03:08:20;;;;;;;21.40;13.25;;;0.70;99.90;;;;;;5010751;28;20050;-63
2022/11/21 03:10:46;;;;;;;21.05;13.57;;;0.70;99.90;;;;;;5008499;28;20389;-64
2022/11/21 03:13:12;;;;;;;21.73;13.38;;;0.60;99.90;;;;;;5010786;28;20510;-64
2022/11/21 03:15:39;;;;;;;21.23;12.50;;;0.60;99.90;;;;;;5009595;28;20573;-63
2022/11/21 03:18:04;;;;;;;22.95;13.07;;;0.60;99.90;;;;;;5011083;28;20085;-64
2022/11/21 03:20:31;;;;;;;24.23;13.43;;;0.50;99.90;;;;;;5010797;28;20050;-63
2022/11/21 03:22:57;;;;;;;24.20;13.18;;;0.50;99.90;;;;;;4994541;28;20045;-64
2022/11/21 03:25:22;;;;;;;21.02;12.95;;;0.60;99.90;;;;;;5009787;28;20060;-64
2022/11/21 03:27:52;;;;;;;19.98;13.10;;;0.60;99.90;;;;;;5011276;28;20050;-64
2022/11/21 03:30:23;;;;;;;22.08;12.93;;;0.60;99.90;;;;;;4991536;28;20497;-63
2022/11/21 03:32:48;;;;;;;20.45;12.88;;;0.60;99.90;;;;;;5011900;28;20598;-64
2022/11/21 03:35:14;;;;;;;24.25;13.35;;;0.60;99.90;;;;;;5007555;28;20046;-63
2022/11/21 03:37:40;;;;;;;21.25;12.95;;;0.60;99.90;;;;;;4994243;28;20080;-63
2022/11/21 03:40:06;;;;;;;21.38;12.65;;;0.60;99.90;;;;;;5008650;28;20057;-63
2022/11/21 03:42:32;;;;;;;22.90;13.88;;;0.60;99.90;;;;;;5011514;28;20472;-63
2022/11/21 03:44:58;;;;;;;23.48;12.48;;;0.60;99.90;;;;;;5007233;28;20050;-63
2022/11/21 03:47:26;;;;;;;21.20;12.70;;;0.80;99.90;;;;;;5010748;28;20096;-63
2022/11/21 03:49:52;;;;;;;21.52;12.98;;;0.70;99.90;;;;;;5010075;28;20428;-63
2022/11/21 03:52:17;;;;;;;23.50;13.55;;;0.70;99.90;;;;;;5020161;28;20060;-63
2022/11/21 03:54:44;;;;;;;25.38;13.60;;;0.70;99.90;;;;;;5007950;28;20100;-63
2022/11/21 03:57:10;;;;;;;22.27;14.38;;;0.70;99.90;;;;;;5010533;28;20426;-63
2022/11/21 03:59:36;;;;;;;26.42;14.85;;;0.60;99.90;;;;;;4993383;28;20044;-63
2022/11/21 04:02:01;;;;;;;26.75;15.55;;;0.60;99.90;;;;;;5009856;28;20046;-63
2022/11/21 04:04:27;;;;;;;25.60;14.55;;;0.70;99.90;;;;;;5010977;28;20527;-63
2022/11/21 04:06:53;;;;;;;26.05;15.27;;;0.70;99.90;;;;;;5010185;28;20045;-63
2022/11/21 04:09:19;;;;;;;24.08;14.02;;;0.70;99.90;;;;;;5007677;28;20053;-64
2022/11/21 04:11:44;;;;;;;25.92;15.52;;;0.70;99.90;;;;;;4989125;28;20046;-63
2022/11/21 04:14:10;;;;;;;25.15;15.18;;;0.60;99.90;;;;;;5010114;28;20038;-63
2022/11/21 04:16:36;;;;;;;25.73;15.25;;;0.70;99.90;;;;;;4990228;28;20108;-64
2022/11/21 04:19:01;;;;;;;29.58;15.88;;;0.70;99.90;;;;;;5008469;28;20042;-63
2022/11/21 04:21:27;;;;;;;26.60;15.68;;;0.70;99.90;;;;;;5010995;28;20059;-63
2022/11/21 04:23:53;;;;;;;28.90;17.58;;;0.70;99.90;;;;;;5009385;28;20061;-63
2022/11/21 04:26:19;;;;;;;30.38;16.95;;;0.50;99.90;;;;;;5010002;28;20491;-63
2022/11/21 04:28:44;;;;;;;26.10;15.15;;;0.60;99.90;;;;;;5007153;28;20100;-63
2022/11/21 04:31:10;;;;;;;28.45;16.67;;;0.50;99.90;;;;;;5010385;28;20115;-63
2022/11/21 04:33:36;;;;;;;30.02;16.98;;;0.60;99.90;;;;;;5009656;28;20133;-63
2022/11/21 04:36:02;;;;;;;25.85;16.25;;;0.50;99.90;;;;;;5004554;28;20049;-63
2022/11/21 04:38:27;;;;;;;26.15;15.50;;;0.60;99.90;;;;;;5009867;28;20045;-64
2022/11/21 04:40:53;;;;;;;26.33;15.20;;;0.60;99.90;;;;;;4992726;28;20522;-64
2022/11/21 04:43:19;;;;;;;28.65;16.58;;;0.50;99.90;;;;;;5008051;28;20487;-63
2022/11/21 04:45:45;;;;;;;30.65;17.23;;;0.50;99.90;;;;;;5018875;28;20156;-63
2022/11/21 04:48:11;;;;;;;28.67;15.32;;;0.60;99.90;;;;;;5007555;28;20048;-64
2022/11/21 04:50:36;;;;;;;28.88;17.08;;;0.60;99.90;;;;;;4991513;28;20437;-63
2022/11/21 04:53:02;;;;;;;27.20;16.63;;;0.60;99.90;;;;;;5004380;28;20041;-63
2022/11/21 04:55:29;;;;;;;28.05;16.33;;;0.60;99.90;;;;;;4991158;28;20080;-63
2022/11/21 04:57:55;;;;;;;31.87;17.73;;;0.50;99.90;;;;;;5008663;28;20049;-64
2022/11/21 05:00:21;;;;;;;29.25;16.92;;;0.50;99.90;;;;;;4990267;28;20061;-63
2022/11/21 05:02:47;;;;;;;31.58;17.88;;;0.60;99.90;;;;;;4991334;28;20136;-63
2022/11/21 05:05:12;;;;;;;29.55;16.88;;;0.50;99.90;;;;;;5008875;28;20053;-63
2022/11/21 05:07:38;;;;;;;30.55;18.13;;;0.50;99.90;;;;;;5006060;28;20059;-63
2022/11/21 05:10:05;;;;;;;31.35;17.60;;;0.50;99.90;;;;;;5003563;28;20045;-63
2022/11/21 05:15:15;;;;;;;28.00;17.58;;;0.40;99.90;;;;;;5011066;28;20042;-63
2022/11/21 05:17:41;;;;;;;28.73;16.48;;;0.40;99.90;;;;;;5003683;28;20056;-63
2022/11/21 05:20:07;;;;;;;30.13;16.67;;;0.30;99.90;;;;;;4989097;28;20384;-62
2022/11/21 05:22:33;;;;;;;32.03;17.77;;;0.30;99.90;;;;;;5028449;28;20056;-63
2022/11/21 05:24:59;;;;;;;29.90;16.77;;;0.30;99.90;;;;;;5041691;28;20919;-63
2022/11/21 05:27:24;;;;;;;29.25;18.10;;;0.20;99.90;;;;;;4992663;28;20041;-63
2022/11/21 05:29:50;;;;;;;33.53;17.92;;;0.20;99.90;;;;;;5010096;28;20056;-64
2022/11/21 05:32:16;;;;;;;28.85;17.45;;;0.10;99.90;;;;;;5009097;28;20042;-63
2022/11/21 05:34:42;;;;;;;31.48;17.60;;;0.10;99.90;;;;;;4988984;28;20046;-63
2022/11/21 05:37:07;;;;;;;28.52;17.02;;;0.10;99.90;;;;;;5039401;28;20120;-63
2022/11/21 05:39:33;;;;;;;28.20;17.20;;;0.10;99.90;;;;;;5000039;28;20042;-63
2022/11/21 05:41:59;;;;;;;29.90;18.27;;;0.00;99.90;;;;;;5006208;28;20049;-63
2022/11/21 05:44:25;;;;;;;36.20;19.48;;;0.00;99.90;;;;;;5008287;28;20046;-64
2022/11/21 05:46:50;;;;;;;31.70;17.88;;;0.00;99.90;;;;;;4992479;28;20042;-63
2022/11/21 05:49:16;;;;;;;31.52;18.02;;;-0.10;99.90;;;;;;5006460;28;20077;-63
2022/11/21 05:51:42;;;;;;;32.40;18.77;;;-0.10;99.90;;;;;;5021337;28;20092;-64
2022/11/21 05:54:12;;;;;;;34.63;19.92;;;-0.10;99.90;;;;;;5006455;28;20042;-64
2022/11/21 05:56:38;;;;;;;31.08;17.83;;;-0.20;99.90;;;;;;5008420;28;20045;-64
2022/11/21 05:59:03;;;;;;;31.90;18.88;;;-0.20;99.90;;;;;;5008158;28;20046;-64
2022/11/21 06:04:13;;;;;;;31.25;18.55;;;-0.20;99.90;;;;;;5008633;28;20062;-64
2022/11/21 06:06:40;;;;;;;34.05;18.73;;;-0.30;99.90;;;;;;5024274;28;20058;-64
2022/11/21 06:09:06;;;;;;;31.42;18.27;;;-0.30;99.90;;;;;;5025325;28;20100;-63
2022/11/21 06:11:32;;;;;;;28.75;17.80;;;-0.20;99.90;;;;;;5008941;28;20161;-64
2022/11/21 06:13:57;;;;;;;33.47;19.10;;;-0.20;99.90;;;;;;5009341;28;20125;-64
2022/11/21 06:16:23;;;;;;;31.80;19.83;;;-0.20;99.90;;;;;;4992154;28;20046;-64
2022/11/21 06:18:53;;;;;;;31.95;19.30;;;-0.30;99.90;;;;;;5012133;28;20515;-65
2022/11/21 06:21:23;;;;;;;36.30;21.73;;;-0.40;99.90;;;;;;5012051;28;20042;-64
2022/11/21 06:23:53;;;;;;;31.92;19.10;;;-0.40;99.90;;;;;;4994196;28;20034;-63
2022/11/21 06:26:20;;;;;;;32.10;18.35;;;-0.40;99.90;;;;;;5009893;28;20054;-65
2022/11/21 06:28:46;;;;;;;33.35;19.63;;;-0.40;99.90;;;;;;5011879;28;20054;-63
2022/11/21 06:31:19;;;;;;;43.75;27.15;;;-0.40;99.90;;;;;;5010338;28;20058;-63
2022/11/21 06:33:45;;;;;;;45.63;28.02;;;-0.40;99.90;;;;;;5007867;28;20124;-63
2022/11/21 06:36:15;;;;;;;39.47;24.45;;;-0.30;99.90;;;;;;5010878;28;20041;-63
2022/11/21 06:38:41;;;;;;;34.13;19.85;;;-0.30;99.90;;;;;;5011276;28;20072;-63
2022/11/21 06:41:10;;;;;;;36.03;20.13;;;-0.40;99.90;;;;;;5011611;28;20053;-63
2022/11/21 06:43:36;;;;;;;32.67;19.70;;;-0.40;99.90;;;;;;5011457;28;20061;-63
2022/11/21 06:46:03;;;;;;;33.65;19.98;;;-0.30;99.90;;;;;;4992337;28;20042;-63
2022/11/21 06:48:32;;;;;;;33.63;20.33;;;-0.40;99.90;;;;;;5026006;28;20053;-63
2022/11/21 06:51:05;;;;;;;39.28;21.05;;;-0.40;99.90;;;;;;5007823;28;20193;-63
2022/11/21 06:53:30;;;;;;;38.22;21.33;;;-0.40;99.90;;;;;;5011101;28;20049;-63
2022/11/21 06:56:00;;;;;;;35.13;20.48;;;-0.40;99.90;;;;;;5007164;28;20045;-64
2022/11/21 06:58:26;;;;;;;36.90;20.77;;;-0.40;99.90;;;;;;5011560;28;20054;-63
2022/11/21 07:00:52;;;;;;;35.97;20.52;;;-0.40;99.90;;;;;;5010924;28;20157;-64
2022/11/21 07:03:18;;;;;;;40.05;22.20;;;-0.50;99.90;;;;;;5011946;28;20125;-64
2022/11/21 07:05:44;;;;;;;36.65;21.48;;;-0.50;99.90;;;;;;5004525;28;20060;-63
2022/11/21 07:08:09;;;;;;;38.40;21.20;;;-0.50;99.90;;;;;;5007947;28;20084;-64
2022/11/21 07:10:36;;;;;;;37.10;20.92;;;-0.50;99.90;;;;;;4992803;28;20077;-64
2022/11/21 07:13:20;;;;;;;37.05;20.83;;;-0.50;99.90;;;;;;5007252;28;20045;-65
2022/11/21 07:15:47;;;;;;;38.55;21.65;;;-0.50;99.90;;;;;;5006564;28;20044;-64
2022/11/21 07:18:15;;;;;;;38.35;22.20;;;-0.60;99.90;;;;;;5009116;28;20689;-64
2022/11/21 07:20:42;;;;;;;33.50;19.73;;;-0.60;99.90;;;;;;5010581;28;20073;-64
2022/11/21 07:23:08;;;;;;;34.38;20.85;;;-0.60;99.90;;;;;;5006194;28;20115;-64
2022/11/21 07:25:34;;;;;;;38.72;23.92;;;-0.60;99.90;;;;;;4993312;28;20050;-63
2022/11/21 07:28:02;;;;;;;36.28;21.30;;;-0.70;99.90;;;;;;4994769;28;20050;-64
2022/11/21 07:30:28;;;;;;;40.35;22.90;;;-0.60;99.90;;;;;;4993364;28;20077;-64
2022/11/21 07:33:01;;;;;;;38.60;22.60;;;-0.60;99.90;;;;;;5011222;28;20092;-64
2022/11/21 07:35:27;;;;;;;41.65;23.60;;;-0.70;99.90;;;;;;5011864;28;20050;-64
2022/11/21 07:37:53;;;;;;;38.83;22.13;;;-0.70;99.90;;;;;;5011210;28;20056;-64
2022/11/21 07:40:19;;;;;;;39.80;23.02;;;-0.60;99.90;;;;;;5009905;28;20061;-64
2022/11/21 07:42:45;;;;;;;39.80;22.55;;;-0.60;99.90;;;;;;4991073;28;20056;-64
2022/11/21 07:45:11;;;;;;;43.75;24.83;;;-0.50;99.90;;;;;;4990973;28;20050;-64
2022/11/21 07:47:37;;;;;;;45.47;25.05;;;-0.40;99.90;;;;;;4994273;28;20530;-64
2022/11/21 07:50:04;;;;;;;41.38;23.77;;;-0.40;99.90;;;;;;5008179;28;20057;-64
2022/11/21 07:52:30;;;;;;;41.47;23.88;;;-0.40;99.90;;;;;;5007957;28;20574;-64
2022/11/21 07:54:56;;;;;;;42.75;24.20;;;-0.30;99.90;;;;;;5020962;28;20077;-64
2022/11/21 07:57:22;;;;;;;42.75;24.45;;;-0.40;99.90;;;;;;5010173;28;20523;-64
2022/11/21 07:59:48;;;;;;;42.70;24.33;;;-0.30;99.90;;;;;;5010905;28;20046;-64
2022/11/21 08:02:24;;;;;;;43.08;22.55;;;-0.30;99.90;;;;;;4990370;28;20772;-65
2022/11/21 08:04:50;;;;;;;37.30;20.65;;;-0.30;99.90;;;;;;5010019;28;20042;-64
2022/11/21 08:07:16;;;;;;;38.15;21.58;;;-0.40;99.90;;;;;;4993745;28;20037;-64
2022/11/21 08:09:42;;;;;;;38.60;21.40;;;-0.40;99.90;;;;;;5004489;28;20057;-65
2022/11/21 08:12:08;;;;;;;36.47;22.33;;;-0.30;99.90;;;;;;5035449;28;20037;-64
2022/11/21 08:14:34;;;;;;;43.83;23.50;;;-0.30;99.90;;;;;;5003857;28;20045;-63
2022/11/21 08:17:00;;;;;;;42.97;26.65;;;-0.20;99.90;;;;;;5024905;28;20049;-64
2022/11/21 08:19:26;;;;;;;37.85;21.85;;;-0.20;99.90;;;;;;5008592;28;20560;-64
2022/11/21 08:21:51;;;;;;;34.50;19.67;;;-0.10;99.90;;;;;;5006624;28;20058;-64
2022/11/21 08:24:17;;;;;;;34.25;19.92;;;-0.10;99.90;;;;;;5008754;28;20049;-64
2022/11/21 08:26:43;;;;;;;37.83;22.45;;;0.00;99.90;;;;;;5005186;28;20053;-64
2022/11/21 08:29:10;;;;;;;40.22;21.40;;;-0.10;99.90;;;;;;5009148;28;20054;-63
2022/11/21 08:31:36;;;;;;;37.40;23.08;;;-0.10;99.90;;;;;;5008622;28;20054;-64
2022/11/21 08:34:02;;;;;;;39.53;22.23;;;0.00;99.90;;;;;;5008494;28;20042;-64
2022/11/21 08:36:27;;;;;;;40.15;22.58;;;0.10;99.90;;;;;;5005082;28;20048;-64
2022/11/21 08:38:53;;;;;;;39.83;22.65;;;0.10;99.90;;;;;;4992930;28;20341;-63
2022/11/21 08:44:04;;;;;;;37.70;22.02;;;0.20;99.90;;;;;;5002495;28;20064;-64
2022/11/21 08:46:32;;;;;;;37.50;22.38;;;0.20;99.90;;;;;;5008809;28;20061;-64
2022/11/21 08:48:58;;;;;;;40.47;25.02;;;0.30;99.90;;;;;;4992216;28;20049;-65
2022/11/21 08:51:24;;;;;;;42.50;24.52;;;0.40;99.90;;;;;;5008522;28;20068;-64
2022/11/21 08:53:50;;;;;;;44.00;26.30;;;0.40;99.90;;;;;;5005573;28;20049;-64
2022/11/21 08:56:15;;;;;;;42.53;24.55;;;0.40;99.90;;;;;;5008734;28;20054;-64
2022/11/21 08:58:41;;;;;;;38.95;22.50;;;0.30;99.90;;;;;;5008352;28;20045;-63
2022/11/21 09:01:07;;;;;;;44.10;24.27;;;0.30;99.90;;;;;;5010015;28;20042;-62
2022/11/21 09:03:33;;;;;;;43.05;25.02;;;0.30;99.90;;;;;;5006275;28;20387;-62
2022/11/21 09:05:58;;;;;;;39.33;24.27;;;0.30;99.90;;;;;;5008771;28;20053;-63
2022/11/21 09:08:24;;;;;;;40.45;23.30;;;0.30;99.90;;;;;;4991703;28;20054;-63
2022/11/21 09:10:50;;;;;;;38.28;20.75;;;0.40;99.90;;;;;;4991454;28;20428;-67
2022/11/21 09:13:16;;;;;;;35.10;20.52;;;0.40;99.90;;;;;;5008631;28;20052;-66
2022/11/21 09:18:26;;;;;;;35.22;19.48;;;0.30;99.90;;;;;;5019878;28;20129;-65
2022/11/21 09:20:52;;;;;;;33.10;20.05;;;0.40;99.90;;;;;;5008215;28;20129;-64
2022/11/21 09:23:18;;;;;;;32.45;18.40;;;0.50;99.90;;;;;;5007145;28;20111;-66
2022/11/21 09:25:43;;;;;;;34.10;19.23;;;0.50;99.90;;;;;;5003512;28;20056;-65
2022/11/21 09:28:10;;;;;;;35.50;18.33;;;0.50;99.90;;;;;;5008018;28;20057;-68
2022/11/21 09:30:36;;;;;;;32.45;17.95;;;0.60;99.90;;;;;;4990741;28;20065;-66
2022/11/21 09:33:06;;;;;;;33.90;18.67;;;0.60;99.90;;;;;;5008214;28;20494;-66
2022/11/21 09:35:32;;;;;;;33.38;18.65;;;0.70;99.90;;;;;;5001254;28;20073;-66
2022/11/21 09:37:58;;;;;;;37.17;18.80;;;0.50;99.90;;;;;;5008091;28;20085;-66
2022/11/21 09:40:24;;;;;;;35.95;20.50;;;0.50;99.90;;;;;;5008490;28;20204;-64
2022/11/21 09:43:28;;;;;;;32.78;17.60;;;0.50;99.90;;;;;;5008939;28;20053;-64
2022/11/21 09:46:20;;;;;;;31.98;17.67;;;0.50;99.90;;;;;;5026644;28;20046;-65
2022/11/21 09:48:57;;;;;;;35.28;17.17;;;0.60;99.90;;;;;;4990998;28;20100;-64
2022/11/21 09:51:22;;;;;;;32.28;17.15;;;0.80;99.90;;;;;;5006701;28;20124;-66
2022/11/21 09:53:57;;;;;;;32.58;18.08;;;0.90;99.90;;;;;;4987577;28;20050;-65
2022/11/21 09:56:23;;;;;;;32.10;16.17;;;1.00;99.90;;;;;;4990617;28;20055;-64
2022/11/21 09:59:27;;;;;;;27.90;15.70;;;0.90;99.90;;;;;;5007809;28;20054;-65
2022/11/21 10:01:53;;;;;;;32.63;16.20;;;1.00;99.90;;;;;;5010479;28;20050;-66
2022/11/21 10:04:18;;;;;;;29.95;15.50;;;1.10;99.90;;;;;;5008060;28;20080;-65
2022/11/21 10:07:12;;;;;;;27.70;14.68;;;1.20;99.90;;;;;;5003221;28;20050;-66
2022/11/21 10:09:43;;;;;;;25.40;13.63;;;1.30;99.90;;;;;;5035471;28;20064;-66
2022/11/21 10:12:38;;;;;;;24.92;14.70;;;1.30;99.90;;;;;;4991514;28;20096;-68
2022/11/21 10:15:25;;;;;;;29.15;15.05;;;1.70;99.90;;;;;;5004277;28;20476;-65
2022/11/21 10:18:18;;;;;;;28.90;16.20;;;2.10;99.90;;;;;;5007870;28;20050;-64
2022/11/21 10:21:13;;;;;;;25.13;14.70;;;2.30;99.90;;;;;;5008666;28;20052;-64
2022/11/21 10:24:03;;;;;;;24.42;14.02;;;2.40;99.90;;;;;;5008068;28;20169;-66
2022/11/21 10:26:45;;;;;;;31.55;14.60;;;2.50;99.90;;;;;;5006670;28;20056;-64
2022/11/21 10:29:16;;;;;;;26.73;15.15;;;2.20;99.90;;;;;;5005356;28;20296;-65
2022/11/21 10:31:41;;;;;;;24.98;14.75;;;2.10;99.90;;;;;;5020980;28;20095;-66
2022/11/21 10:34:12;;;;;;;26.42;15.45;;;2.10;99.90;;;;;;4989697;28;20547;-66
2022/11/21 10:36:42;;;;;;;31.48;16.98;;;2.10;99.90;;;;;;5007594;28;20371;-66
2022/11/21 10:39:37;;;;;;;27.85;14.75;;;2.50;99.90;;;;;;5007113;28;20128;-65
2022/11/21 10:42:25;;;;;;;28.38;17.02;;;3.00;99.90;;;;;;5007502;28;20046;-67
2022/11/21 10:47:50;;;;;;;31.05;15.80;;;3.10;99.90;;;;;;4983707;28;20049;-67
2022/11/21 10:50:34;;;;;;;33.53;16.83;;;2.90;99.90;;;;;;4988792;28;20478;-65
2022/11/21 10:56:13;;;;;;;28.13;14.27;;;2.70;99.90;;;;;;5007476;28;20061;-65
2022/11/21 10:58:44;;;;;;;24.30;12.70;;;2.30;99.90;;;;;;5003269;28;20069;-64
2022/11/21 11:01:31;;;;;;;21.85;11.18;;;2.50;99.90;;;;;;5009565;28;20060;-66
2022/11/21 11:04:27;;;;;;;24.35;12.00;;;2.40;99.90;;;;;;4994608;28;20084;-64
2022/11/21 11:06:58;;;;;;;29.13;12.88;;;2.60;99.90;;;;;;5024480;28;20084;-65
2022/11/21 11:09:31;;;;;;;17.70;11.20;;;2.90;99.90;;;;;;5011258;28;20081;-65
2022/11/21 11:13:32;;;;;;;20.70;11.55;;;3.40;99.90;;;;;;5010687;28;20050;-66
2022/11/21 11:15:22;;;;;;;19.77;10.43;;;4.20;99.90;;;;;;5013704;28;20542;-65
2022/11/21 11:17:58;;;;;;;16.83;8.30;;;4.10;99.90;;;;;;5010922;28;20158;-65
2022/11/21 11:20:41;;;;;;;15.32;9.20;;;4.70;99.90;;;;;;5011494;28;20045;-65
2022/11/21 11:23:19;;;;;;;13.00;8.55;;;5.20;99.90;;;;;;4977066;28;20049;-66
2022/11/21 11:25:52;;;;;;;14.38;8.80;;;5.80;99.90;;;;;;5006710;28;20052;-66
2022/11/21 11:28:18;;;;;;;14.68;8.48;;;5.40;99.90;;;;;;5010136;28;20049;-66
2022/11/21 11:30:45;;;;;;;15.90;8.68;;;5.10;99.90;;;;;;5010156;28;20057;-67
2022/11/21 11:33:36;;;;;;;11.88;8.05;;;5.40;99.90;;;;;;4992891;28;20065;-69
2022/11/21 11:36:14;;;;;;;14.32;7.55;;;5.80;99.90;;;;;;4993788;28;20046;-65
2022/11/21 11:38:46;;;;;;;13.15;8.20;;;5.30;99.90;;;;;;5009701;28;20115;-68
2022/11/21 11:47:29;;;;;;;11.88;8.45;;;5.90;99.90;;;;;;5026298;28;20075;-66
2022/11/21 11:48:06;;;;;;;12.55;7.75;;;5.70;99.90;;;;;;5024745;28;20053;-66
2022/11/21 11:50:41;;;;;;;13.52;7.60;;;5.70;99.90;;;;;;5004544;28;20050;-66
2022/11/21 11:53:18;;;;;;;13.57;9.02;;;5.70;99.70;;;;;;5003992;28;20104;-68
2022/11/21 11:56:04;;;;;;;14.55;8.43;;;6.20;99.90;;;;;;5006150;28;20482;-66
2022/11/21 11:58:54;;;;;;;18.02;10.13;;;6.10;99.20;;;;;;5003358;28;20081;-65
2022/11/21 12:01:29;;;;;;;12.43;7.72;;;6.30;99.00;;;;;;5008226;28;20107;-65
2022/11/21 12:04:17;;;;;;;13.50;8.25;;;6.60;98.90;;;;;;5010311;28;20112;-64
2022/11/21 12:07:05;;;;;;;13.52;8.95;;;6.50;98.10;;;;;;5006144;28;20079;-67
2022/11/21 12:09:34;;;;;;;14.60;8.80;;;6.90;97.50;;;;;;4991289;28;20430;-66
2022/11/21 12:12:14;;;;;;;12.38;8.00;;;7.00;98.20;;;;;;5007115;28;20046;-66
2022/11/21 12:18:00;;;;;;;11.80;7.82;;;7.40;97.10;;;;;;5008367;28;20042;-66
2022/11/21 12:20:41;;;;;;;12.35;7.82;;;7.60;96.30;;;;;;4992308;28;20075;-66
2022/11/21 12:23:08;;;;;;;12.57;7.72;;;7.00;95.20;;;;;;4992218;28;20136;-67
2022/11/21 12:25:37;;;;;;;12.02;7.70;;;7.00;96.70;;;;;;5008420;28;20053;-66
2022/11/21 12:28:04;;;;;;;12.57;8.13;;;7.60;95.00;;;;;;4992710;28;20054;-66
2022/11/21 12:30:43;;;;;;;11.43;8.20;;;7.80;95.50;;;;;;5008442;28;20065;-68
2022/11/21 12:33:21;;;;;;;11.40;7.32;;;7.90;94.30;;;;;;4992427;28;20038;-66
2022/11/21 12:36:20;;;;;;;10.60;7.65;;;7.80;94.80;;;;;;5009193;28;20057;-66
2022/11/21 12:38:54;;;;;;;10.20;6.75;;;7.70;93.60;;;;;;5009804;28;20050;-65
2022/11/21 12:44:32;;;;;;;12.88;7.15;;;7.30;95.30;;;;;;5024201;28;20455;-66
2022/11/21 12:47:05;;;;;;;11.23;7.57;;;7.10;94.70;;;;;;5009755;28;20137;-65
2022/11/21 12:55:38;;;;;;;10.80;6.80;;;6.40;95.30;;;;;;5007923;28;20111;-65
2022/11/21 12:58:08;;;;;;;10.30;6.65;;;6.50;95.60;;;;;;5008349;28;20057;-65
2022/11/21 13:00:57;;;;;;;9.57;6.53;;;6.30;95.10;;;;;;5003176;28;20555;-64
2022/11/21 13:03:50;;;;;;;10.48;6.93;;;6.00;95.30;;;;;;5008827;28;20129;-64
2022/11/21 13:06:27;;;;;;;12.50;6.93;;;6.00;95.40;;;;;;5008620;28;20046;-65
2022/11/21 13:08:53;;;;;;;11.93;7.20;;;6.20;96.00;;;;;;4991230;28;20375;-64
2022/11/21 13:11:57;;;;;;;10.90;7.55;;;6.20;95.30;;;;;;5008185;28;20046;-65
2022/11/21 13:14:42;;;;;;;14.65;7.97;;;6.40;95.60;;;;;;5007400;28;20042;-66
2022/11/21 13:17:20;;;;;;;12.65;8.10;;;6.30;95.00;;;;;;5004769;28;20049;-65
2022/11/21 13:20:16;;;;;;;14.00;8.20;;;6.30;94.60;;;;;;5007675;28;20108;-66
2022/11/21 13:22:45;;;;;;;15.15;8.95;;;6.20;94.90;;;;;;5008701;28;20124;-67